Safmarine Nimba — WSNU — position and weather

sailwx.info

Track history (hours):
 
Tides and Currents Weather Stations Pressure Air Temp Water Temp Dewpoint Dewpoint Depression Visibility Wind Speed Wind Dir Waves Ship Positions

Safmarine Nimba

Owner: Maersk Line, Limited, Norfolk, VA. More information available from US FCC via Universal Licensing System and Coast Guard Vessel Documentation Center.

Last reported at 2018-Jun-17 01:19 UTC. Time now 2018-Jun-18 17:07 UTC.
Position N 32°59' E 033°30'.

Length 195 m; draft 9.1 m.

Type: Ship (hazmat cat A). MMSI: 369248000.

Date/timePositionNaut miles runAvg speedWind from/ knotsBaromVisibWave heightAir tempDewpointWater temp
2018-Jun-17 01:19N 32°59' E 033°30'3 9.7
2018-Jun-17 00:59N 32°56' E 033°28'5 9.8
2018-Jun-17 00:27N 32°52' E 033°25'4 9.8
2018-Jun-17 00:00N 32°48' E 033°23'5 9.9
2018-Jun-16 23:30N 32°44' E 033°20'2410.0
2018-Jun-16 21:05N 32°22' E 033°06'110.0
2018-Jun-16 21:00N 32°22' E 033°05'1010.0
2018-Jun-16 20:03N 32°13' E 033°00'010.0
2018-Jun-16 20:00N 32°13' E 032°60'510.1
2018-Jun-16 19:30N 32°08' E 032°57'510.0
2018-Jun-16 18:58N 32°04' E 032°54'510.0
2018-Jun-16 18:30N 31°59' E 032°52'5 9.9
2018-Jun-16 18:00N 31°55' E 032°50'5 9.9
2018-Jun-16 17:29N 31°50' E 032°47'5 9.7
2018-Jun-16 17:00N 31°46' E 032°44'510.1
2018-Jun-16 16:30N 31°43' E 032°39'510.3
2018-Jun-16 16:00N 31°41' E 032°34'510.5
2018-Jun-16 15:30N 31°38' E 032°29'510.2
2018-Jun-16 15:00N 31°35' E 032°24'5 9.2
2018-Jun-16 14:30N 31°31' E 032°24'6 9.5
2018-Jun-16 13:50N 31°24' E 032°25'310.3
2018-Jun-16 13:30N 31°21' E 032°24'9 0.9
2018-Jun-16 03:41N 31°13' E 032°21'0 0.0
2018-Jun-16 03:29N 31°13' E 032°21'0 0.0
2018-Jun-16 02:59N 31°13' E 032°21'0 0.0
2018-Jun-16 02:29N 31°13' E 032°21'0 0.0
2018-Jun-16 01:56N 31°13' E 032°21'0 0.0
2018-Jun-16 01:29N 31°13' E 032°21'0 0.0
2018-Jun-16 00:59N 31°13' E 032°21'0 0.0
2018-Jun-16 00:29N 31°13' E 032°21'0 0.0
2018-Jun-15 23:59N 31°13' E 032°21'0 0.0
2018-Jun-15 23:23N 31°13' E 032°21'0 0.0
2018-Jun-15 22:59N 31°13' E 032°21'0 0.0
2018-Jun-15 22:26N 31°13' E 032°21'0 0.0
2018-Jun-15 21:59N 31°13' E 032°21'0 0.0
2018-Jun-15 21:20N 31°13' E 032°21'0 0.0
2018-Jun-15 20:59N 31°13' E 032°21'0 0.0
2018-Jun-15 20:29N 31°13' E 032°21'0 0.0
2018-Jun-15 19:50N 31°13' E 032°21'0 0.0
2018-Jun-15 19:29N 31°13' E 032°21'0 0.0
2018-Jun-15 18:59N 31°13' E 032°21'0 0.0
2018-Jun-15 18:29N 31°13' E 032°21'0 0.0
2018-Jun-15 17:59N 31°13' E 032°21'0 0.0
2018-Jun-15 17:26N 31°13' E 032°21'0 0.0
2018-Jun-15 16:47N 31°13' E 032°21'0 0.0
2018-Jun-15 16:26N 31°13' E 032°21'0 0.0
2018-Jun-15 15:56N 31°13' E 032°21'0 0.0
2018-Jun-15 15:29N 31°13' E 032°21'0 0.0
2018-Jun-15 14:56N 31°13' E 032°21'0 0.0
2018-Jun-15 14:23N 31°13' E 032°21'0 0.0
2018-Jun-15 13:56N 31°13' E 032°21'0 0.0
2018-Jun-15 13:29N 31°13' E 032°21'0 0.0
2018-Jun-15 12:29N 31°13' E 032°21'0 0.0
2018-Jun-15 11:56N 31°13' E 032°21'0 0.0
2018-Jun-15 11:29N 31°13' E 032°21'0 0.0
2018-Jun-15 10:59N 31°13' E 032°21'0 0.0
2018-Jun-15 10:29N 31°13' E 032°21'0 0.0
2018-Jun-15 09:59N 31°13' E 032°21'12 1.1
2018-Jun-14 22:25N 31°24' E 032°26'0 0.0
2018-Jun-14 22:00N 31°24' E 032°26'11 4.4
2018-Jun-14 19:27N 31°35' E 032°22'510.4
2018-Jun-14 19:00N 31°38' E 032°26'510.7
2018-Jun-14 18:30N 31°41' E 032°31'2312.2
2018-Jun-14 16:38N 32°01' E 032°44'314.2
2018-Jun-14 16:24N 32°04' E 032°45'3216.0
2018-Jun-14 14:24N 32°33' E 033°02'616.0
2018-Jun-14 14:00N 32°38' E 033°05'1215.9
2018-Jun-14 13:14N 32°49' E 033°11'  
2018-Jun-10 17:52N 35°00' E 034°46'410.0
2018-Jun-10 17:30N 34°57' E 034°44'10 9.9
2018-Jun-10 16:30N 34°48' E 034°39'610.0
2018-Jun-10 15:57N 34°43' E 034°36'410.1
2018-Jun-10 15:30N 34°39' E 034°33'510.1
2018-Jun-10 15:00N 34°35' E 034°30'1010.4
2018-Jun-10 14:00N 34°26' E 034°24'510.7
2018-Jun-10 13:30N 34°21' E 034°21'610.6
2018-Jun-10 12:57N 34°16' E 034°17'510.6
2018-Jun-10 12:30N 34°11' E 034°15'510.6
2018-Jun-10 12:00N 34°07' E 034°12'610.5
2018-Jun-10 11:26N 34°01' E 034°08'410.4
2018-Jun-10 11:00N 33°58' E 034°06'510.4
2018-Jun-10 10:30N 33°53' E 034°03'510.4
2018-Jun-10 10:00N 33°48' E 034°00'510.4
2018-Jun-10 09:30N 33°44' E 033°57'510.3
2018-Jun-10 09:00N 33°39' E 033°54'510.3
2018-Jun-10 08:30N 33°35' E 033°52'710.1
2018-Jun-10 07:49N 33°28' E 033°48'3310.2
2018-Jun-10 04:36N 32°59' E 033°30'3010.5
2018-Jun-10 01:44N 32°33' E 033°13'310.4
2018-Jun-10 01:24N 32°30' E 033°11'610.3
2018-Jun-10 00:52N 32°25' E 033°08'410.3
2018-Jun-10 00:29N 32°21' E 033°06'610.2
2018-Jun-09 23:52N 32°16' E 033°03'410.3
2018-Jun-09 23:27N 32°12' E 033°00'510.4
2018-Jun-09 22:59N 32°07' E 032°58'510.3
2018-Jun-09 22:30N 32°03' E 032°55'510.4
2018-Jun-09 22:00N 31°58' E 032°52'510.4
2018-Jun-09 21:30N 31°54' E 032°49'510.2
2018-Jun-09 21:00N 31°50' E 032°46'5 9.8
2018-Jun-09 20:30N 31°45' E 032°43'510.1
2018-Jun-09 20:00N 31°43' E 032°38'710.0
2018-Jun-09 19:17N 31°39' E 032°31'710.0
2018-Jun-09 18:34N 31°35' E 032°24'1 9.2
2018-Jun-09 18:30N 31°35' E 032°24'11 9.4
2018-Jun-09 17:18N 31°23' E 032°25'411.9
2018-Jun-09 17:00N 31°20' E 032°23'611.5
2018-Jun-09 16:30N 31°14' E 032°22'2 5.0
2018-Jun-09 16:00N 31°12' E 032°21'0 0.0
2018-Jun-09 07:33N 31°12' E 032°21'0 0.0
2018-Jun-09 07:24N 31°12' E 032°21'0 0.0
2018-Jun-08 14:21N 31°12' E 032°21'0 0.4
2018-Jun-08 14:00N 31°12' E 032°21'3 7.0
2018-Jun-08 13:30N 31°16' E 032°22'510.1
2018-Jun-08 13:00N 31°21' E 032°23'4 8.1
2018-Jun-08 12:30N 31°24' E 032°26'2 4.1
2018-Jun-08 12:00N 31°24' E 032°28'0 0.8
2018-Jun-08 11:30N 31°24' E 032°28'0 0.6
2018-Jun-08 11:00N 31°25' E 032°28'0 0.7
2018-Jun-08 10:30N 31°25' E 032°28'0 0.2
2018-Jun-08 10:00N 31°25' E 032°28'0 0.7
2018-Jun-08 09:30N 31°25' E 032°28'12 2.4
2018-Jun-08 04:27N 31°37' E 032°25'2610.5
2018-Jun-08 01:59N 31°58' E 032°43'511.1
2018-Jun-08 01:30N 32°03' E 032°45'511.1
2018-Jun-08 01:00N 32°08' E 032°48'811.0
2018-Jun-08 00:16N 32°15' E 032°52'410.9
2018-Jun-07 23:56N 32°18' E 032°54'510.9
2018-Jun-07 23:30N 32°23' E 032°56'611.0
2018-Jun-07 23:00N 32°28' E 032°59'611.0
2018-Jun-07 22:30N 32°33' E 033°02'611.2
2018-Jun-07 22:00N 32°38' E 033°04'1311.4
2018-Jun-07 20:50N 32°50' E 033°12'3111.6
2018-Jun-07 18:11N 33°18' E 033°27'212.0
2018-Jun-07 18:00N 33°20' E 033°28'1211.9
2018-Jun-07 17:01N 33°30' E 033°34'211.5
2018-Jun-07 16:53N 33°32' E 033°35'411.7
2018-Jun-07 16:30N 33°36' E 033°37'611.6
2018-Jun-07 16:00N 33°41' E 033°40'611.6
2018-Jun-07 15:30N 33°46' E 033°43'611.4
2018-Jun-07 15:00N 33°51' E 033°46'911.2
2018-Jun-07 14:12N 33°60' E 033°50'311.2
2018-Jun-07 13:58N 34°02' E 033°52'511.3
2018-Jun-07 13:31N 34°07' E 033°54'611.3
2018-Jun-07 13:01N 34°12' E 033°57'611.3
2018-Jun-07 12:31N 34°17' E 033°60'611.3
2018-Jun-07 12:01N 34°22' E 034°03'711.3
2018-Jun-07 11:22N 34°29' E 034°07'411.3
2018-Jun-07 11:01N 34°32' E 034°09'611.2
2018-Jun-07 10:28N 34°38' E 034°12'1111.3
2018-Jun-07 09:32N 34°47' E 034°18'011.5
2018-Jun-07 09:30N 34°48' E 034°18'1311.4
2018-Jun-07 08:20N 34°60' E 034°24'411.7
2018-Jun-07 08:00N 35°03' E 034°26'1311.6
2018-Jun-07 06:52N 35°15' E 034°33'411.8
2018-Jun-07 06:31N 35°19' E 034°35'814.1
2018-Jun-07 05:56N 35°26' E 034°39'715.6
2018-Jun-07 05:29N 35°33' E 034°43'  
Track history (hours):
 
Tides and Currents Weather Stations Pressure Air Temp Water Temp Dewpoint Dewpoint Depression Visibility Wind Speed Wind Dir Waves Ship Positions

Safmarine Nimba

Owner: Maersk Line, Limited, Norfolk, VA. More information available from US FCC via Universal Licensing System and Coast Guard Vessel Documentation Center.

Last reported at 2018-Jun-17 01:19 UTC. Time now 2018-Jun-18 17:07 UTC.
Position N 32°59' E 033°30'.

Length 195 m; draft 9.1 m.

Type: Ship (hazmat cat A). MMSI: 369248000.

Date/timePositionNaut miles runAvg speedWind from/ knotsBaromVisibWave heightAir tempDewpointWater temp
2018-Jun-17 01:19N 32°59' E 033°30'3 9.7
2018-Jun-17 00:59N 32°56' E 033°28'5 9.8
2018-Jun-17 00:27N 32°52' E 033°25'4 9.8
2018-Jun-17 00:00N 32°48' E 033°23'5 9.9
2018-Jun-16 23:30N 32°44' E 033°20'2410.0
2018-Jun-16 21:05N 32°22' E 033°06'110.0
2018-Jun-16 21:00N 32°22' E 033°05'1010.0
2018-Jun-16 20:03N 32°13' E 033°00'010.0
2018-Jun-16 20:00N 32°13' E 032°60'510.1
2018-Jun-16 19:30N 32°08' E 032°57'510.0
2018-Jun-16 18:58N 32°04' E 032°54'510.0
2018-Jun-16 18:30N 31°59' E 032°52'5 9.9
2018-Jun-16 18:00N 31°55' E 032°50'5 9.9
2018-Jun-16 17:29N 31°50' E 032°47'5 9.7
2018-Jun-16 17:00N 31°46' E 032°44'510.1
2018-Jun-16 16:30N 31°43' E 032°39'510.3
2018-Jun-16 16:00N 31°41' E 032°34'510.5
2018-Jun-16 15:30N 31°38' E 032°29'510.2
2018-Jun-16 15:00N 31°35' E 032°24'5 9.2
2018-Jun-16 14:30N 31°31' E 032°24'6 9.5
2018-Jun-16 13:50N 31°24' E 032°25'310.3
2018-Jun-16 13:30N 31°21' E 032°24'9 0.9
2018-Jun-16 03:41N 31°13' E 032°21'0 0.0
2018-Jun-16 03:29N 31°13' E 032°21'0 0.0
2018-Jun-16 02:59N 31°13' E 032°21'0 0.0
2018-Jun-16 02:29N 31°13' E 032°21'0 0.0
2018-Jun-16 01:56N 31°13' E 032°21'0 0.0
2018-Jun-16 01:29N 31°13' E 032°21'0 0.0
2018-Jun-16 00:59N 31°13' E 032°21'0 0.0
2018-Jun-16 00:29N 31°13' E 032°21'0 0.0
2018-Jun-15 23:59N 31°13' E 032°21'0 0.0
2018-Jun-15 23:23N 31°13' E 032°21'0 0.0
2018-Jun-15 22:59N 31°13' E 032°21'0 0.0
2018-Jun-15 22:26N 31°13' E 032°21'0 0.0
2018-Jun-15 21:59N 31°13' E 032°21'0 0.0
2018-Jun-15 21:20N 31°13' E 032°21'0 0.0
2018-Jun-15 20:59N 31°13' E 032°21'0 0.0
2018-Jun-15 20:29N 31°13' E 032°21'0 0.0
2018-Jun-15 19:50N 31°13' E 032°21'0 0.0
2018-Jun-15 19:29N 31°13' E 032°21'0 0.0
2018-Jun-15 18:59N 31°13' E 032°21'0 0.0
2018-Jun-15 18:29N 31°13' E 032°21'0 0.0
2018-Jun-15 17:59N 31°13' E 032°21'0 0.0
2018-Jun-15 17:26N 31°13' E 032°21'0 0.0
2018-Jun-15 16:47N 31°13' E 032°21'0 0.0
2018-Jun-15 16:26N 31°13' E 032°21'0 0.0
2018-Jun-15 15:56N 31°13' E 032°21'0 0.0
2018-Jun-15 15:29N 31°13' E 032°21'0 0.0
2018-Jun-15 14:56N 31°13' E 032°21'0 0.0
2018-Jun-15 14:23N 31°13' E 032°21'0 0.0
2018-Jun-15 13:56N 31°13' E 032°21'0 0.0
2018-Jun-15 13:29N 31°13' E 032°21'0 0.0
2018-Jun-15 12:29N 31°13' E 032°21'0 0.0
2018-Jun-15 11:56N 31°13' E 032°21'0 0.0
2018-Jun-15 11:29N 31°13' E 032°21'0 0.0
2018-Jun-15 10:59N 31°13' E 032°21'0 0.0
2018-Jun-15 10:29N 31°13' E 032°21'0 0.0
2018-Jun-15 09:59N 31°13' E 032°21'12 1.1
2018-Jun-14 22:25N 31°24' E 032°26'0 0.0
2018-Jun-14 22:00N 31°24' E 032°26'11 4.4
2018-Jun-14 19:27N 31°35' E 032°22'510.4
2018-Jun-14 19:00N 31°38' E 032°26'510.7
2018-Jun-14 18:30N 31°41' E 032°31'2312.2
2018-Jun-14 16:38N 32°01' E 032°44'314.2
2018-Jun-14 16:24N 32°04' E 032°45'3216.0
2018-Jun-14 14:24N 32°33' E 033°02'616.0
2018-Jun-14 14:00N 32°38' E 033°05'1215.9
2018-Jun-14 13:14N 32°49' E 033°11'  
2018-Jun-10 17:52N 35°00' E 034°46'410.0
2018-Jun-10 17:30N 34°57' E 034°44'10 9.9
2018-Jun-10 16:30N 34°48' E 034°39'610.0
2018-Jun-10 15:57N 34°43' E 034°36'410.1
2018-Jun-10 15:30N 34°39' E 034°33'510.1
2018-Jun-10 15:00N 34°35' E 034°30'1010.4
2018-Jun-10 14:00N 34°26' E 034°24'510.7
2018-Jun-10 13:30N 34°21' E 034°21'610.6
2018-Jun-10 12:57N 34°16' E 034°17'510.6
2018-Jun-10 12:30N 34°11' E 034°15'510.6
2018-Jun-10 12:00N 34°07' E 034°12'610.5
2018-Jun-10 11:26N 34°01' E 034°08'410.4
2018-Jun-10 11:00N 33°58' E 034°06'510.4
2018-Jun-10 10:30N 33°53' E 034°03'510.4
2018-Jun-10 10:00N 33°48' E 034°00'510.4
2018-Jun-10 09:30N 33°44' E 033°57'510.3
2018-Jun-10 09:00N 33°39' E 033°54'510.3
2018-Jun-10 08:30N 33°35' E 033°52'710.1
2018-Jun-10 07:49N 33°28' E 033°48'3310.2
2018-Jun-10 04:36N 32°59' E 033°30'3010.5
2018-Jun-10 01:44N 32°33' E 033°13'310.4
2018-Jun-10 01:24N 32°30' E 033°11'610.3
2018-Jun-10 00:52N 32°25' E 033°08'410.3
2018-Jun-10 00:29N 32°21' E 033°06'610.2
2018-Jun-09 23:52N 32°16' E 033°03'410.3
2018-Jun-09 23:27N 32°12' E 033°00'510.4
2018-Jun-09 22:59N 32°07' E 032°58'510.3
2018-Jun-09 22:30N 32°03' E 032°55'510.4
2018-Jun-09 22:00N 31°58' E 032°52'510.4
2018-Jun-09 21:30N 31°54' E 032°49'510.2
2018-Jun-09 21:00N 31°50' E 032°46'5 9.8
2018-Jun-09 20:30N 31°45' E 032°43'510.1
2018-Jun-09 20:00N 31°43' E 032°38'710.0
2018-Jun-09 19:17N 31°39' E 032°31'710.0
2018-Jun-09 18:34N 31°35' E 032°24'1 9.2
2018-Jun-09 18:30N 31°35' E 032°24'11 9.4
2018-Jun-09 17:18N 31°23' E 032°25'411.9
2018-Jun-09 17:00N 31°20' E 032°23'611.5
2018-Jun-09 16:30N 31°14' E 032°22'2 5.0
2018-Jun-09 16:00N 31°12' E 032°21'0 0.0
2018-Jun-09 07:33N 31°12' E 032°21'0 0.0
2018-Jun-09 07:24N 31°12' E 032°21'0 0.0
2018-Jun-08 14:21N 31°12' E 032°21'0 0.4
2018-Jun-08 14:00N 31°12' E 032°21'3 7.0
2018-Jun-08 13:30N 31°16' E 032°22'510.1
2018-Jun-08 13:00N 31°21' E 032°23'4 8.1
2018-Jun-08 12:30N 31°24' E 032°26'2 4.1
2018-Jun-08 12:00N 31°24' E 032°28'0 0.8
2018-Jun-08 11:30N 31°24' E 032°28'0 0.6
2018-Jun-08 11:00N 31°25' E 032°28'0 0.7
2018-Jun-08 10:30N 31°25' E 032°28'0 0.2
2018-Jun-08 10:00N 31°25' E 032°28'0 0.7
2018-Jun-08 09:30N 31°25' E 032°28'12 2.4
2018-Jun-08 04:27N 31°37' E 032°25'2610.5
2018-Jun-08 01:59N 31°58' E 032°43'511.1
2018-Jun-08 01:30N 32°03' E 032°45'511.1
2018-Jun-08 01:00N 32°08' E 032°48'811.0
2018-Jun-08 00:16N 32°15' E 032°52'410.9
2018-Jun-07 23:56N 32°18' E 032°54'510.9
2018-Jun-07 23:30N 32°23' E 032°56'611.0
2018-Jun-07 23:00N 32°28' E 032°59'611.0
2018-Jun-07 22:30N 32°33' E 033°02'611.2
2018-Jun-07 22:00N 32°38' E 033°04'1311.4
2018-Jun-07 20:50N 32°50' E 033°12'3111.6
2018-Jun-07 18:11N 33°18' E 033°27'212.0
2018-Jun-07 18:00N 33°20' E 033°28'1211.9
2018-Jun-07 17:01N 33°30' E 033°34'211.5
2018-Jun-07 16:53N 33°32' E 033°35'411.7
2018-Jun-07 16:30N 33°36' E 033°37'611.6
2018-Jun-07 16:00N 33°41' E 033°40'611.6
2018-Jun-07 15:30N 33°46' E 033°43'611.4
2018-Jun-07 15:00N 33°51' E 033°46'911.2
2018-Jun-07 14:12N 33°60' E 033°50'311.2
2018-Jun-07 13:58N 34°02' E 033°52'511.3
2018-Jun-07 13:31N 34°07' E 033°54'611.3
2018-Jun-07 13:01N 34°12' E 033°57'611.3
2018-Jun-07 12:31N 34°17' E 033°60'611.3
2018-Jun-07 12:01N 34°22' E 034°03'711.3
2018-Jun-07 11:22N 34°29' E 034°07'411.3
2018-Jun-07 11:01N 34°32' E 034°09'611.2
2018-Jun-07 10:28N 34°38' E 034°12'1111.3
2018-Jun-07 09:32N 34°47' E 034°18'011.5
2018-Jun-07 09:30N 34°48' E 034°18'1311.4
2018-Jun-07 08:20N 34°60' E 034°24'411.7
2018-Jun-07 08:00N 35°03' E 034°26'1311.6
2018-Jun-07 06:52N 35°15' E 034°33'411.8
2018-Jun-07 06:31N 35°19' E 034°35'814.1
2018-Jun-07 05:56N 35°26' E 034°39'715.6
2018-Jun-07 05:29N 35°33' E 034°43'  

Dump ship's entire track history